sensor_id;sensor_type;location;lat;lon;timestamp;P1;durP1;ratioP1;P2;durP2;ratioP2
57752;SDS011;43583;53.132;6.574;2023-06-26T00:00:03;3.83;;;3.45;;
57752;SDS011;43583;53.132;6.574;2023-06-26T00:02:30;4.57;;;3.67;;
57752;SDS011;43583;53.132;6.574;2023-06-26T00:04:57;3.63;;;3.33;;
57752;SDS011;43583;53.132;6.574;2023-06-26T00:07:23;4.32;;;3.90;;
57752;SDS011;43583;53.132;6.574;2023-06-26T00:09:49;4.93;;;3.70;;
57752;SDS011;43583;53.132;6.574;2023-06-26T00:12:15;5.38;;;4.47;;
57752;SDS011;43583;53.132;6.574;2023-06-26T00:14:40;4.55;;;3.75;;
57752;SDS011;43583;53.132;6.574;2023-06-26T00:17:06;5.60;;;3.85;;
57752;SDS011;43583;53.132;6.574;2023-06-26T00:19:31;5.35;;;4.07;;
57752;SDS011;43583;53.132;6.574;2023-06-26T00:21:58;9.88;;;4.50;;
57752;SDS011;43583;53.132;6.574;2023-06-26T00:24:23;3.90;;;3.50;;
57752;SDS011;43583;53.132;6.574;2023-06-26T00:26:49;4.72;;;4.00;;
57752;SDS011;43583;53.132;6.574;2023-06-26T00:29:15;4.45;;;4.05;;
57752;SDS011;43583;53.132;6.574;2023-06-26T00:31:41;7.30;;;3.90;;
57752;SDS011;43583;53.132;6.574;2023-06-26T00:34:06;8.20;;;5.15;;
57752;SDS011;43583;53.132;6.574;2023-06-26T00:36:32;4.75;;;3.78;;
57752;SDS011;43583;53.132;6.574;2023-06-26T00:38:58;6.10;;;5.15;;
57752;SDS011;43583;53.132;6.574;2023-06-26T00:41:24;6.05;;;4.45;;
57752;SDS011;43583;53.132;6.574;2023-06-26T00:43:50;5.25;;;4.65;;
57752;SDS011;43583;53.132;6.574;2023-06-26T00:46:16;5.97;;;4.70;;
57752;SDS011;43583;53.132;6.574;2023-06-26T00:48:42;5.00;;;4.50;;
57752;SDS011;43583;53.132;6.574;2023-06-26T00:51:10;6.80;;;5.03;;
57752;SDS011;43583;53.132;6.574;2023-06-26T00:53:36;5.32;;;4.82;;
57752;SDS011;43583;53.132;6.574;2023-06-26T00:56:02;8.68;;;4.70;;
57752;SDS011;43583;53.132;6.574;2023-06-26T00:58:30;7.18;;;4.82;;
57752;SDS011;43583;53.132;6.574;2023-06-26T01:00:56;5.90;;;5.22;;
57752;SDS011;43583;53.132;6.574;2023-06-26T01:03:25;5.47;;;4.97;;
57752;SDS011;43583;53.132;6.574;2023-06-26T01:05:54;7.03;;;5.45;;
57752;SDS011;43583;53.132;6.574;2023-06-26T01:08:23;7.32;;;5.55;;
57752;SDS011;43583;53.132;6.574;2023-06-26T01:10:49;8.00;;;5.22;;
57752;SDS011;43583;53.132;6.574;2023-06-26T01:13:15;5.30;;;4.57;;
57752;SDS011;43583;53.132;6.574;2023-06-26T01:15:41;5.00;;;4.05;;
57752;SDS011;43583;53.132;6.574;2023-06-26T01:18:07;5.57;;;4.63;;
57752;SDS011;43583;53.132;6.574;2023-06-26T01:20:36;6.85;;;5.00;;
57752;SDS011;43583;53.132;6.574;2023-06-26T01:28:37;5.47;;;4.95;;
57752;SDS011;43583;53.132;6.574;2023-06-26T01:31:06;5.63;;;4.90;;
57752;SDS011;43583;53.132;6.574;2023-06-26T01:33:32;5.78;;;5.07;;
57752;SDS011;43583;53.132;6.574;2023-06-26T01:35:58;6.88;;;5.38;;
57752;SDS011;43583;53.132;6.574;2023-06-26T01:38:24;6.22;;;4.63;;
57752;SDS011;43583;53.132;6.574;2023-06-26T01:40:50;7.38;;;5.32;;
57752;SDS011;43583;53.132;6.574;2023-06-26T01:43:19;5.18;;;4.68;;
57752;SDS011;43583;53.132;6.574;2023-06-26T01:46:02;6.53;;;4.82;;
57752;SDS011;43583;53.132;6.574;2023-06-26T01:48:33;7.32;;;5.07;;
57752;SDS011;43583;53.132;6.574;2023-06-26T01:51:05;6.13;;;5.00;;
57752;SDS011;43583;53.132;6.574;2023-06-26T01:53:34;5.18;;;4.63;;
57752;SDS011;43583;53.132;6.574;2023-06-26T01:56:07;5.90;;;5.30;;
57752;SDS011;43583;53.132;6.574;2023-06-26T01:58:35;7.18;;;4.88;;
57752;SDS011;43583;53.132;6.574;2023-06-26T02:01:05;6.50;;;4.80;;
57752;SDS011;43583;53.132;6.574;2023-06-26T02:03:31;8.05;;;5.07;;
57752;SDS011;43583;53.132;6.574;2023-06-26T02:05:56;6.30;;;5.47;;
57752;SDS011;43583;53.132;6.574;2023-06-26T02:08:22;5.75;;;5.20;;
57752;SDS011;43583;53.132;6.574;2023-06-26T02:10:48;5.88;;;5.10;;
57752;SDS011;43583;53.132;6.574;2023-06-26T02:13:14;6.07;;;5.47;;
57752;SDS011;43583;53.132;6.574;2023-06-26T02:15:39;6.63;;;5.93;;
57752;SDS011;43583;53.132;6.574;2023-06-26T02:18:05;6.10;;;5.10;;
57752;SDS011;43583;53.132;6.574;2023-06-26T02:20:30;5.70;;;4.63;;
57752;SDS011;43583;53.132;6.574;2023-06-26T02:22:59;4.95;;;4.45;;
57752;SDS011;43583;53.132;6.574;2023-06-26T02:25:24;6.35;;;5.53;;
57752;SDS011;43583;53.132;6.574;2023-06-26T02:27:50;5.13;;;4.63;;
57752;SDS011;43583;53.132;6.574;2023-06-26T02:30:16;7.50;;;5.00;;
57752;SDS011;43583;53.132;6.574;2023-06-26T02:32:42;7.65;;;5.07;;
57752;SDS011;43583;53.132;6.574;2023-06-26T02:35:08;5.13;;;4.72;;
57752;SDS011;43583;53.132;6.574;2023-06-26T02:37:33;5.63;;;5.03;;
57752;SDS011;43583;53.132;6.574;2023-06-26T02:39:59;5.10;;;4.60;;
57752;SDS011;43583;53.132;6.574;2023-06-26T02:42:24;4.85;;;4.45;;
57752;SDS011;43583;53.132;6.574;2023-06-26T02:44:50;6.43;;;5.25;;
57752;SDS011;43583;53.132;6.574;2023-06-26T02:47:15;7.18;;;5.13;;
57752;SDS011;43583;53.132;6.574;2023-06-26T02:49:41;6.18;;;5.45;;
57752;SDS011;43583;53.132;6.574;2023-06-26T02:52:06;7.75;;;5.75;;
57752;SDS011;43583;53.132;6.574;2023-06-26T02:54:32;6.70;;;5.40;;
57752;SDS011;43583;53.132;6.574;2023-06-26T02:56:57;6.88;;;5.43;;
57752;SDS011;43583;53.132;6.574;2023-06-26T02:59:24;7.47;;;5.57;;
57752;SDS011;43583;53.132;6.574;2023-06-26T03:01:51;7.28;;;6.00;;
57752;SDS011;43583;53.132;6.574;2023-06-26T03:04:16;6.32;;;4.97;;
57752;SDS011;43583;53.132;6.574;2023-06-26T03:06:43;8.25;;;6.13;;
57752;SDS011;43583;53.132;6.574;2023-06-26T03:09:08;8.98;;;5.75;;
57752;SDS011;43583;53.132;6.574;2023-06-26T03:11:34;10.27;;;6.30;;
57752;SDS011;43583;53.132;6.574;2023-06-26T03:13:59;7.82;;;6.15;;
57752;SDS011;43583;53.132;6.574;2023-06-26T03:16:25;8.05;;;6.28;;
57752;SDS011;43583;53.132;6.574;2023-06-26T03:18:51;8.50;;;6.38;;
57752;SDS011;43583;53.132;6.574;2023-06-26T03:21:16;8.20;;;5.65;;
57752;SDS011;43583;53.132;6.574;2023-06-26T03:23:42;6.88;;;5.60;;
57752;SDS011;43583;53.132;6.574;2023-06-26T03:26:08;7.93;;;6.72;;
57752;SDS011;43583;53.132;6.574;2023-06-26T03:28:33;7.88;;;6.60;;
57752;SDS011;43583;53.132;6.574;2023-06-26T03:30:59;7.63;;;6.68;;
57752;SDS011;43583;53.132;6.574;2023-06-26T03:33:25;7.82;;;6.45;;
57752;SDS011;43583;53.132;6.574;2023-06-26T03:35:50;6.70;;;6.00;;
57752;SDS011;43583;53.132;6.574;2023-06-26T03:38:16;6.38;;;5.78;;
57752;SDS011;43583;53.132;6.574;2023-06-26T03:40:41;7.60;;;6.68;;
57752;SDS011;43583;53.132;6.574;2023-06-26T03:43:07;7.97;;;6.75;;
57752;SDS011;43583;53.132;6.574;2023-06-26T03:45:32;7.05;;;5.90;;
57752;SDS011;43583;53.132;6.574;2023-06-26T03:47:58;7.55;;;6.55;;
57752;SDS011;43583;53.132;6.574;2023-06-26T03:50:23;7.43;;;6.00;;
57752;SDS011;43583;53.132;6.574;2023-06-26T03:52:49;7.38;;;6.28;;
57752;SDS011;43583;53.132;6.574;2023-06-26T03:55:16;5.78;;;5.25;;
57752;SDS011;43583;53.132;6.574;2023-06-26T03:57:42;8.00;;;5.50;;
57752;SDS011;43583;53.132;6.574;2023-06-26T04:00:08;6.88;;;5.97;;
57752;SDS011;43583;53.132;6.574;2023-06-26T04:02:34;6.22;;;5.43;;
57752;SDS011;43583;53.132;6.574;2023-06-26T04:05:00;5.28;;;4.78;;
57752;SDS011;43583;53.132;6.574;2023-06-26T04:07:26;5.90;;;4.72;;
57752;SDS011;43583;53.132;6.574;2023-06-26T04:09:52;5.20;;;4.68;;
57752;SDS011;43583;53.132;6.574;2023-06-26T04:12:17;7.50;;;5.40;;
57752;SDS011;43583;53.132;6.574;2023-06-26T04:14:43;6.95;;;4.55;;
57752;SDS011;43583;53.132;6.574;2023-06-26T04:17:09;5.65;;;4.63;;
57752;SDS011;43583;53.132;6.574;2023-06-26T04:19:35;6.82;;;4.93;;
57752;SDS011;43583;53.132;6.574;2023-06-26T04:22:01;5.22;;;3.85;;
57752;SDS011;43583;53.132;6.574;2023-06-26T04:24:27;5.95;;;4.18;;
57752;SDS011;43583;53.132;6.574;2023-06-26T04:26:52;4.93;;;4.43;;
57752;SDS011;43583;53.132;6.574;2023-06-26T04:29:21;5.22;;;4.30;;
57752;SDS011;43583;53.132;6.574;2023-06-26T04:31:50;5.72;;;4.22;;
57752;SDS011;43583;53.132;6.574;2023-06-26T04:34:16;4.05;;;3.60;;
57752;SDS011;43583;53.132;6.574;2023-06-26T04:36:42;4.70;;;3.53;;
57752;SDS011;43583;53.132;6.574;2023-06-26T04:39:11;4.55;;;3.17;;
57752;SDS011;43583;53.132;6.574;2023-06-26T04:41:37;4.82;;;2.92;;
57752;SDS011;43583;53.132;6.574;2023-06-26T04:44:02;4.85;;;3.67;;
57752;SDS011;43583;53.132;6.574;2023-06-26T04:46:28;5.10;;;3.45;;
57752;SDS011;43583;53.132;6.574;2023-06-26T04:48:53;4.13;;;2.75;;
57752;SDS011;43583;53.132;6.574;2023-06-26T04:51:19;4.38;;;3.17;;
57752;SDS011;43583;53.132;6.574;2023-06-26T04:53:45;4.93;;;3.58;;
57752;SDS011;43583;53.132;6.574;2023-06-26T04:56:11;5.60;;;3.97;;
57752;SDS011;43583;53.132;6.574;2023-06-26T04:58:37;6.40;;;2.95;;
57752;SDS011;43583;53.132;6.574;2023-06-26T05:01:03;6.38;;;3.05;;
57752;SDS011;43583;53.132;6.574;2023-06-26T05:03:32;5.68;;;3.67;;
57752;SDS011;43583;53.132;6.574;2023-06-26T05:05:57;7.57;;;3.97;;
57752;SDS011;43583;53.132;6.574;2023-06-26T05:08:24;5.13;;;3.70;;
57752;SDS011;43583;53.132;6.574;2023-06-26T05:10:51;6.43;;;3.30;;
57752;SDS011;43583;53.132;6.574;2023-06-26T05:13:18;8.55;;;3.53;;
57752;SDS011;43583;53.132;6.574;2023-06-26T05:15:45;7.75;;;4.28;;
57752;SDS011;43583;53.132;6.574;2023-06-26T05:18:11;6.35;;;3.28;;
57752;SDS011;43583;53.132;6.574;2023-06-26T05:20:37;8.18;;;3.60;;
57752;SDS011;43583;53.132;6.574;2023-06-26T05:23:03;9.27;;;3.92;;
57752;SDS011;43583;53.132;6.574;2023-06-26T05:25:29;6.30;;;4.13;;
57752;SDS011;43583;53.132;6.574;2023-06-26T05:27:59;9.55;;;4.82;;
57752;SDS011;43583;53.132;6.574;2023-06-26T05:30:25;6.95;;;3.90;;
57752;SDS011;43583;53.132;6.574;2023-06-26T05:32:52;12.32;;;4.53;;
57752;SDS011;43583;53.132;6.574;2023-06-26T05:35:19;7.80;;;4.50;;
57752;SDS011;43583;53.132;6.574;2023-06-26T05:37:46;15.18;;;3.88;;
57752;SDS011;43583;53.132;6.574;2023-06-26T05:40:13;8.35;;;4.30;;
57752;SDS011;43583;53.132;6.574;2023-06-26T05:42:40;7.22;;;2.90;;
57752;SDS011;43583;53.132;6.574;2023-06-26T05:45:05;7.07;;;3.40;;
57752;SDS011;43583;53.132;6.574;2023-06-26T05:47:31;6.72;;;3.33;;
57752;SDS011;43583;53.132;6.574;2023-06-26T05:49:57;12.93;;;3.30;;
57752;SDS011;43583;53.132;6.574;2023-06-26T05:52:23;6.18;;;2.60;;
57752;SDS011;43583;53.132;6.574;2023-06-26T05:54:49;8.77;;;2.40;;
57752;SDS011;43583;53.132;6.574;2023-06-26T05:57:15;5.28;;;1.90;;
57752;SDS011;43583;53.132;6.574;2023-06-26T05:59:41;4.68;;;2.33;;
57752;SDS011;43583;53.132;6.574;2023-06-26T06:02:08;4.00;;;2.10;;
57752;SDS011;43583;53.132;6.574;2023-06-26T06:04:34;10.05;;;2.38;;
57752;SDS011;43583;53.132;6.574;2023-06-26T06:07:00;5.43;;;2.42;;
57752;SDS011;43583;53.132;6.574;2023-06-26T06:09:25;5.90;;;1.92;;
57752;SDS011;43583;53.132;6.574;2023-06-26T06:11:51;7.45;;;1.80;;
57752;SDS011;43583;53.132;6.574;2023-06-26T06:14:16;5.65;;;1.30;;
57752;SDS011;43583;53.132;6.574;2023-06-26T06:16:42;3.15;;;0.93;;
57752;SDS011;43583;53.132;6.574;2023-06-26T06:19:08;6.30;;;1.67;;
57752;SDS011;43583;53.132;6.574;2023-06-26T06:21:36;2.80;;;0.88;;
57752;SDS011;43583;53.132;6.574;2023-06-26T06:24:01;3.25;;;0.63;;
57752;SDS011;43583;53.132;6.574;2023-06-26T06:26:28;4.57;;;0.95;;
57752;SDS011;43583;53.132;6.574;2023-06-26T06:28:53;6.50;;;0.70;;
57752;SDS011;43583;53.132;6.574;2023-06-26T06:31:19;4.63;;;1.17;;
57752;SDS011;43583;53.132;6.574;2023-06-26T06:33:45;4.13;;;0.73;;
57752;SDS011;43583;53.132;6.574;2023-06-26T06:36:11;5.35;;;0.55;;
57752;SDS011;43583;53.132;6.574;2023-06-26T06:38:36;7.15;;;0.95;;
57752;SDS011;43583;53.132;6.574;2023-06-26T06:41:02;2.47;;;0.68;;
57752;SDS011;43583;53.132;6.574;2023-06-26T06:43:27;9.05;;;0.70;;
57752;SDS011;43583;53.132;6.574;2023-06-26T06:45:53;4.10;;;0.88;;
57752;SDS011;43583;53.132;6.574;2023-06-26T06:48:18;2.53;;;0.52;;
57752;SDS011;43583;53.132;6.574;2023-06-26T06:50:44;4.32;;;0.40;;
57752;SDS011;43583;53.132;6.574;2023-06-26T06:53:09;3.80;;;0.60;;
57752;SDS011;43583;53.132;6.574;2023-06-26T06:55:35;3.70;;;0.45;;
57752;SDS011;43583;53.132;6.574;2023-06-26T06:58:00;2.72;;;0.30;;
57752;SDS011;43583;53.132;6.574;2023-06-26T07:00:26;4.47;;;0.60;;
57752;SDS011;43583;53.132;6.574;2023-06-26T07:02:52;1.77;;;0.50;;
57752;SDS011;43583;53.132;6.574;2023-06-26T07:05:18;3.28;;;0.45;;
57752;SDS011;43583;53.132;6.574;2023-06-26T07:07:44;3.20;;;0.60;;
57752;SDS011;43583;53.132;6.574;2023-06-26T07:10:12;4.15;;;0.60;;
57752;SDS011;43583;53.132;6.574;2023-06-26T07:12:38;3.25;;;0.50;;
57752;SDS011;43583;53.132;6.574;2023-06-26T07:15:04;4.20;;;0.30;;
57752;SDS011;43583;53.132;6.574;2023-06-26T07:17:31;2.50;;;0.68;;
57752;SDS011;43583;53.132;6.574;2023-06-26T07:19:57;1.52;;;0.45;;
57752;SDS011;43583;53.132;6.574;2023-06-26T07:22:22;2.80;;;0.20;;
57752;SDS011;43583;53.132;6.574;2023-06-26T07:24:48;2.70;;;0.63;;
57752;SDS011;43583;53.132;6.574;2023-06-26T07:27:17;4.38;;;0.30;;
57752;SDS011;43583;53.132;6.574;2023-06-26T07:29:44;1.60;;;0.20;;
57752;SDS011;43583;53.132;6.574;2023-06-26T07:32:10;1.88;;;0.60;;
57752;SDS011;43583;53.132;6.574;2023-06-26T07:34:35;2.25;;;0.20;;
57752;SDS011;43583;53.132;6.574;2023-06-26T07:37:01;1.17;;;0.25;;
57752;SDS011;43583;53.132;6.574;2023-06-26T07:39:27;1.33;;;0.20;;
57752;SDS011;43583;53.132;6.574;2023-06-26T07:41:53;3.97;;;0.20;;
57752;SDS011;43583;53.132;6.574;2023-06-26T07:44:18;1.08;;;0.20;;
57752;SDS011;43583;53.132;6.574;2023-06-26T07:46:44;1.95;;;0.40;;
57752;SDS011;43583;53.132;6.574;2023-06-26T07:49:10;3.05;;;0.50;;
57752;SDS011;43583;53.132;6.574;2023-06-26T07:51:36;1.73;;;0.35;;
57752;SDS011;43583;53.132;6.574;2023-06-26T07:54:01;1.85;;;0.20;;
57752;SDS011;43583;53.132;6.574;2023-06-26T07:56:27;2.17;;;0.20;;
57752;SDS011;43583;53.132;6.574;2023-06-26T07:58:53;2.15;;;0.40;;
57752;SDS011;43583;53.132;6.574;2023-06-26T08:01:18;1.05;;;0.20;;
57752;SDS011;43583;53.132;6.574;2023-06-26T08:03:44;2.80;;;0.20;;
57752;SDS011;43583;53.132;6.574;2023-06-26T08:06:09;0.98;;;0.28;;
57752;SDS011;43583;53.132;6.574;2023-06-26T08:08:35;1.95;;;0.60;;
57752;SDS011;43583;53.132;6.574;2023-06-26T08:11:01;2.38;;;0.20;;
57752;SDS011;43583;53.132;6.574;2023-06-26T08:13:27;1.50;;;0.20;;
57752;SDS011;43583;53.132;6.574;2023-06-26T08:15:53;0.88;;;0.10;;
57752;SDS011;43583;53.132;6.574;2023-06-26T08:18:19;2.83;;;0.30;;
57752;SDS011;43583;53.132;6.574;2023-06-26T08:20:45;1.70;;;0.43;;
57752;SDS011;43583;53.132;6.574;2023-06-26T08:23:11;1.08;;;0.50;;
57752;SDS011;43583;53.132;6.574;2023-06-26T08:25:36;0.60;;;0.13;;
57752;SDS011;43583;53.132;6.574;2023-06-26T08:28:02;2.05;;;0.20;;
57752;SDS011;43583;53.132;6.574;2023-06-26T08:30:28;0.77;;;0.10;;
57752;SDS011;43583;53.132;6.574;2023-06-26T08:32:54;1.65;;;0.10;;
57752;SDS011;43583;53.132;6.574;2023-06-26T08:35:20;0.82;;;0.10;;
57752;SDS011;43583;53.132;6.574;2023-06-26T08:37:46;0.82;;;0.20;;
57752;SDS011;43583;53.132;6.574;2023-06-26T08:40:12;0.50;;;0.10;;
57752;SDS011;43583;53.132;6.574;2023-06-26T08:42:41;1.85;;;0.20;;
57752;SDS011;43583;53.132;6.574;2023-06-26T08:45:06;1.17;;;0.10;;
57752;SDS011;43583;53.132;6.574;2023-06-26T08:47:33;1.75;;;0.28;;
57752;SDS011;43583;53.132;6.574;2023-06-26T08:50:13;1.35;;;0.30;;
57752;SDS011;43583;53.132;6.574;2023-06-26T08:55:10;1.48;;;0.20;;
57752;SDS011;43583;53.132;6.574;2023-06-26T08:57:39;1.42;;;0.20;;
57752;SDS011;43583;53.132;6.574;2023-06-26T09:00:05;1.52;;;0.20;;
57752;SDS011;43583;53.132;6.574;2023-06-26T09:02:33;0.95;;;0.10;;
57752;SDS011;43583;53.132;6.574;2023-06-26T09:05:01;2.15;;;0.20;;
57752;SDS011;43583;53.132;6.574;2023-06-26T09:07:28;2.25;;;0.20;;
57752;SDS011;43583;53.132;6.574;2023-06-26T09:09:54;1.48;;;0.40;;
57752;SDS011;43583;53.132;6.574;2023-06-26T09:12:20;1.33;;;0.55;;
57752;SDS011;43583;53.132;6.574;2023-06-26T09:14:46;1.10;;;0.30;;
57752;SDS011;43583;53.132;6.574;2023-06-26T09:17:12;2.05;;;0.52;;
57752;SDS011;43583;53.132;6.574;2023-06-26T09:19:38;1.00;;;0.20;;
57752;SDS011;43583;53.132;6.574;2023-06-26T09:22:04;1.65;;;0.17;;
57752;SDS011;43583;53.132;6.574;2023-06-26T09:24:35;1.55;;;0.10;;
57752;SDS011;43583;53.132;6.574;2023-06-26T09:27:01;0.60;;;0.10;;
57752;SDS011;43583;53.132;6.574;2023-06-26T09:29:27;3.38;;;0.30;;
57752;SDS011;43583;53.132;6.574;2023-06-26T09:31:55;5.00;;;0.30;;
57752;SDS011;43583;53.132;6.574;2023-06-26T09:34:21;7.00;;;0.55;;
57752;SDS011;43583;53.132;6.574;2023-06-26T09:36:47;1.30;;;0.35;;
57752;SDS011;43583;53.132;6.574;2023-06-26T09:39:14;2.30;;;0.28;;
57752;SDS011;43583;53.132;6.574;2023-06-26T09:41:43;1.42;;;0.20;;
57752;SDS011;43583;53.132;6.574;2023-06-26T09:44:10;1.35;;;0.15;;
57752;SDS011;43583;53.132;6.574;2023-06-26T09:46:38;4.30;;;0.20;;
57752;SDS011;43583;53.132;6.574;2023-06-26T09:49:05;1.00;;;0.20;;
57752;SDS011;43583;53.132;6.574;2023-06-26T09:51:31;1.15;;;0.20;;
57752;SDS011;43583;53.132;6.574;2023-06-26T09:54:00;1.30;;;0.10;;
57752;SDS011;43583;53.132;6.574;2023-06-26T09:56:27;1.63;;;0.25;;
57752;SDS011;43583;53.132;6.574;2023-06-26T09:58:57;1.13;;;0.40;;
57752;SDS011;43583;53.132;6.574;2023-06-26T10:01:24;2.15;;;0.25;;
57752;SDS011;43583;53.132;6.574;2023-06-26T10:03:51;3.13;;;0.35;;
57752;SDS011;43583;53.132;6.574;2023-06-26T10:06:22;1.95;;;0.20;;
57752;SDS011;43583;53.132;6.574;2023-06-26T10:08:54;2.28;;;0.25;;
57752;SDS011;43583;53.132;6.574;2023-06-26T10:11:21;2.40;;;0.35;;
57752;SDS011;43583;53.132;6.574;2023-06-26T10:13:49;2.53;;;0.30;;
57752;SDS011;43583;53.132;6.574;2023-06-26T10:16:26;3.28;;;0.28;;
57752;SDS011;43583;53.132;6.574;2023-06-26T10:18:55;1.25;;;0.57;;
57752;SDS011;43583;53.132;6.574;2023-06-26T10:21:26;1.98;;;0.20;;
57752;SDS011;43583;53.132;6.574;2023-06-26T10:23:53;1.00;;;0.43;;
57752;SDS011;43583;53.132;6.574;2023-06-26T10:26:20;2.55;;;0.30;;
57752;SDS011;43583;53.132;6.574;2023-06-26T10:28:47;1.17;;;0.20;;
57752;SDS011;43583;53.132;6.574;2023-06-26T10:31:18;1.10;;;0.20;;
57752;SDS011;43583;53.132;6.574;2023-06-26T10:33:47;3.80;;;0.55;;
57752;SDS011;43583;53.132;6.574;2023-06-26T10:36:15;6.60;;;0.63;;
57752;SDS011;43583;53.132;6.574;2023-06-26T10:38:54;1.33;;;0.30;;
57752;SDS011;43583;53.132;6.574;2023-06-26T10:41:21;2.00;;;0.25;;
57752;SDS011;43583;53.132;6.574;2023-06-26T10:43:49;1.35;;;0.20;;
57752;SDS011;43583;53.132;6.574;2023-06-26T10:46:24;1.00;;;0.20;;
57752;SDS011;43583;53.132;6.574;2023-06-26T10:48:56;0.60;;;0.17;;
57752;SDS011;43583;53.132;6.574;2023-06-26T10:51:26;2.03;;;0.20;;
57752;SDS011;43583;53.132;6.574;2023-06-26T10:53:55;0.73;;;0.20;;
57752;SDS011;43583;53.132;6.574;2023-06-26T10:56:40;1.92;;;0.10;;
57752;SDS011;43583;53.132;6.574;2023-06-26T10:59:13;1.67;;;0.20;;
57752;SDS011;43583;53.132;6.574;2023-06-26T11:01:43;1.20;;;0.20;;
57752;SDS011;43583;53.132;6.574;2023-06-26T11:04:21;3.35;;;0.20;;
57752;SDS011;43583;53.132;6.574;2023-06-26T11:07:21;1.23;;;0.30;;
57752;SDS011;43583;53.132;6.574;2023-06-26T11:12:37;2.30;;;0.20;;
57752;SDS011;43583;53.132;6.574;2023-06-26T11:15:16;1.52;;;0.20;;
57752;SDS011;43583;53.132;6.574;2023-06-26T11:17:45;3.47;;;0.20;;
57752;SDS011;43583;53.132;6.574;2023-06-26T11:20:12;1.88;;;0.13;;
57752;SDS011;43583;53.132;6.574;2023-06-26T11:22:39;0.60;;;0.20;;
57752;SDS011;43583;53.132;6.574;2023-06-26T11:25:07;0.82;;;0.10;;
57752;SDS011;43583;53.132;6.574;2023-06-26T11:27:40;0.65;;;0.13;;
57752;SDS011;43583;53.132;6.574;2023-06-26T11:30:11;2.47;;;0.20;;
57752;SDS011;43583;53.132;6.574;2023-06-26T11:32:47;0.55;;;0.10;;
57752;SDS011;43583;53.132;6.574;2023-06-26T11:35:13;1.33;;;0.10;;
57752;SDS011;43583;53.132;6.574;2023-06-26T11:37:38;0.82;;;0.25;;
57752;SDS011;43583;53.132;6.574;2023-06-26T11:40:20;0.55;;;0.10;;
57752;SDS011;43583;53.132;6.574;2023-06-26T11:42:46;1.98;;;0.13;;
57752;SDS011;43583;53.132;6.574;2023-06-26T11:45:12;1.50;;;0.22;;
57752;SDS011;43583;53.132;6.574;2023-06-26T11:47:38;1.65;;;0.15;;
57752;SDS011;43583;53.132;6.574;2023-06-26T11:50:04;0.50;;;0.20;;
57752;SDS011;43583;53.132;6.574;2023-06-26T11:52:29;1.30;;;0.10;;
57752;SDS011;43583;53.132;6.574;2023-06-26T11:54:58;1.02;;;0.10;;
57752;SDS011;43583;53.132;6.574;2023-06-26T11:57:23;1.63;;;0.57;;
57752;SDS011;43583;53.132;6.574;2023-06-26T11:59:49;0.43;;;0.00;;
57752;SDS011;43583;53.132;6.574;2023-06-26T12:02:16;1.48;;;0.30;;
57752;SDS011;43583;53.132;6.574;2023-06-26T12:04:42;2.63;;;0.10;;
57752;SDS011;43583;53.132;6.574;2023-06-26T12:07:09;2.90;;;0.20;;
57752;SDS011;43583;53.132;6.574;2023-06-26T12:09:42;0.85;;;0.10;;
57752;SDS011;43583;53.132;6.574;2023-06-26T12:12:10;1.80;;;0.25;;
57752;SDS011;43583;53.132;6.574;2023-06-26T12:14:37;1.25;;;0.15;;
57752;SDS011;43583;53.132;6.574;2023-06-26T12:17:10;2.03;;;0.10;;
57752;SDS011;43583;53.132;6.574;2023-06-26T12:19:37;2.13;;;0.10;;
57752;SDS011;43583;53.132;6.574;2023-06-26T12:22:07;2.45;;;0.10;;
57752;SDS011;43583;53.132;6.574;2023-06-26T12:24:33;2.88;;;0.20;;
57752;SDS011;43583;53.132;6.574;2023-06-26T12:27:00;0.73;;;0.15;;
57752;SDS011;43583;53.132;6.574;2023-06-26T12:29:31;2.05;;;0.28;;
57752;SDS011;43583;53.132;6.574;2023-06-26T12:31:58;0.50;;;0.10;;
57752;SDS011;43583;53.132;6.574;2023-06-26T12:34:28;2.30;;;0.40;;
57752;SDS011;43583;53.132;6.574;2023-06-26T12:37:03;2.22;;;0.15;;
57752;SDS011;43583;53.132;6.574;2023-06-26T12:39:30;2.10;;;0.20;;
57752;SDS011;43583;53.132;6.574;2023-06-26T12:42:13;1.70;;;0.20;;
57752;SDS011;43583;53.132;6.574;2023-06-26T12:44:43;2.70;;;0.10;;
57752;SDS011;43583;53.132;6.574;2023-06-26T12:47:09;2.70;;;0.10;;
57752;SDS011;43583;53.132;6.574;2023-06-26T12:52:03;1.10;;;0.10;;
57752;SDS011;43583;53.132;6.574;2023-06-26T12:54:39;0.73;;;0.10;;
57752;SDS011;43583;53.132;6.574;2023-06-26T12:57:07;1.67;;;0.10;;
57752;SDS011;43583;53.132;6.574;2023-06-26T12:59:33;1.00;;;0.10;;
57752;SDS011;43583;53.132;6.574;2023-06-26T13:02:01;1.25;;;0.20;;
57752;SDS011;43583;53.132;6.574;2023-06-26T13:04:27;2.05;;;0.20;;
57752;SDS011;43583;53.132;6.574;2023-06-26T13:06:53;2.80;;;0.10;;
57752;SDS011;43583;53.132;6.574;2023-06-26T13:09:21;1.10;;;0.10;;
57752;SDS011;43583;53.132;6.574;2023-06-26T13:11:48;4.65;;;0.20;;
57752;SDS011;43583;53.132;6.574;2023-06-26T13:14:14;1.63;;;0.15;;
57752;SDS011;43583;53.132;6.574;2023-06-26T13:16:40;1.33;;;0.10;;
57752;SDS011;43583;53.132;6.574;2023-06-26T13:19:06;1.65;;;0.10;;
57752;SDS011;43583;53.132;6.574;2023-06-26T13:21:33;3.83;;;0.15;;
57752;SDS011;43583;53.132;6.574;2023-06-26T13:23:59;2.75;;;0.20;;
57752;SDS011;43583;53.132;6.574;2023-06-26T13:26:25;3.20;;;0.20;;
57752;SDS011;43583;53.132;6.574;2023-06-26T13:28:53;1.98;;;0.20;;
57752;SDS011;43583;53.132;6.574;2023-06-26T13:31:18;1.15;;;0.10;;
57752;SDS011;43583;53.132;6.574;2023-06-26T13:33:44;4.10;;;0.20;;
57752;SDS011;43583;53.132;6.574;2023-06-26T13:36:10;4.20;;;0.20;;
57752;SDS011;43583;53.132;6.574;2023-06-26T13:38:36;2.33;;;0.17;;
57752;SDS011;43583;53.132;6.574;2023-06-26T13:41:02;1.85;;;0.13;;
57752;SDS011;43583;53.132;6.574;2023-06-26T13:43:28;0.65;;;0.10;;
57752;SDS011;43583;53.132;6.574;2023-06-26T13:45:55;1.23;;;0.10;;
57752;SDS011;43583;53.132;6.574;2023-06-26T13:48:20;1.70;;;0.10;;
57752;SDS011;43583;53.132;6.574;2023-06-26T13:50:47;1.08;;;0.15;;
57752;SDS011;43583;53.132;6.574;2023-06-26T13:53:13;2.30;;;0.13;;
57752;SDS011;43583;53.132;6.574;2023-06-26T13:55:39;2.40;;;0.10;;
57752;SDS011;43583;53.132;6.574;2023-06-26T13:58:06;2.67;;;0.30;;
57752;SDS011;43583;53.132;6.574;2023-06-26T14:00:33;4.68;;;0.20;;
57752;SDS011;43583;53.132;6.574;2023-06-26T14:03:00;0.65;;;0.10;;
57752;SDS011;43583;53.132;6.574;2023-06-26T14:05:27;2.60;;;0.17;;
57752;SDS011;43583;53.132;6.574;2023-06-26T14:07:53;3.88;;;0.20;;
57752;SDS011;43583;53.132;6.574;2023-06-26T14:10:19;3.35;;;0.20;;
57752;SDS011;43583;53.132;6.574;2023-06-26T14:12:46;0.82;;;0.10;;
57752;SDS011;43583;53.132;6.574;2023-06-26T14:15:12;0.43;;;0.00;;
57752;SDS011;43583;53.132;6.574;2023-06-26T14:17:37;1.23;;;0.13;;
57752;SDS011;43583;53.132;6.574;2023-06-26T14:20:05;1.33;;;0.10;;
57752;SDS011;43583;53.132;6.574;2023-06-26T14:22:34;0.82;;;0.10;;
57752;SDS011;43583;53.132;6.574;2023-06-26T14:25:00;0.70;;;0.10;;
57752;SDS011;43583;53.132;6.574;2023-06-26T14:27:26;1.48;;;0.10;;
57752;SDS011;43583;53.132;6.574;2023-06-26T14:29:52;1.55;;;0.13;;
57752;SDS011;43583;53.132;6.574;2023-06-26T14:32:17;0.88;;;0.10;;
57752;SDS011;43583;53.132;6.574;2023-06-26T14:34:43;1.27;;;0.10;;
57752;SDS011;43583;53.132;6.574;2023-06-26T14:37:09;2.67;;;0.10;;
57752;SDS011;43583;53.132;6.574;2023-06-26T14:39:34;1.80;;;0.13;;
57752;SDS011;43583;53.132;6.574;2023-06-26T14:42:00;1.10;;;0.40;;
57752;SDS011;43583;53.132;6.574;2023-06-26T14:44:25;1.85;;;0.10;;
57752;SDS011;43583;53.132;6.574;2023-06-26T14:46:51;1.65;;;0.30;;
57752;SDS011;43583;53.132;6.574;2023-06-26T14:49:16;3.95;;;0.20;;
57752;SDS011;43583;53.132;6.574;2023-06-26T14:51:44;0.50;;;0.00;;
57752;SDS011;43583;53.132;6.574;2023-06-26T14:54:09;2.05;;;0.30;;
57752;SDS011;43583;53.132;6.574;2023-06-26T14:56:35;0.82;;;0.25;;
57752;SDS011;43583;53.132;6.574;2023-06-26T14:59:00;2.70;;;0.28;;